sensor_id;sensor_type;location;lat;lon;timestamp;P1;durP1;ratioP1;P2;durP2;ratioP2
71773;SDS011;59607;52.130;5.430;2023-04-19T00:00:58;7.38;;;4.78;;
71773;SDS011;59607;52.130;5.430;2023-04-19T00:03:30;4.82;;;4.30;;
71773;SDS011;59607;52.130;5.430;2023-04-19T00:06:03;5.80;;;5.07;;
71773;SDS011;59607;52.130;5.430;2023-04-19T00:08:33;5.95;;;5.10;;
71773;SDS011;59607;52.130;5.430;2023-04-19T00:11:00;6.00;;;5.40;;
71773;SDS011;59607;52.130;5.430;2023-04-19T00:13:31;6.50;;;4.72;;
71773;SDS011;59607;52.130;5.430;2023-04-19T00:15:57;5.93;;;4.25;;
71773;SDS011;59607;52.130;5.430;2023-04-19T00:18:23;5.38;;;4.60;;
71773;SDS011;59607;52.130;5.430;2023-04-19T00:20:55;5.22;;;4.40;;
71773;SDS011;59607;52.130;5.430;2023-04-19T00:23:21;6.87;;;5.00;;
71773;SDS011;59607;52.130;5.430;2023-04-19T00:25:54;5.55;;;4.97;;
71773;SDS011;59607;52.130;5.430;2023-04-19T00:28:23;5.93;;;5.20;;
71773;SDS011;59607;52.130;5.430;2023-04-19T00:30:50;5.60;;;5.10;;
71773;SDS011;59607;52.130;5.430;2023-04-19T00:33:34;5.22;;;4.72;;
71773;SDS011;59607;52.130;5.430;2023-04-19T00:36:08;5.90;;;4.80;;
71773;SDS011;59607;52.130;5.430;2023-04-19T00:38:36;5.43;;;4.93;;
71773;SDS011;59607;52.130;5.430;2023-04-19T00:41:02;5.80;;;5.10;;
71773;SDS011;59607;52.130;5.430;2023-04-19T00:43:33;5.43;;;4.75;;
71773;SDS011;59607;52.130;5.430;2023-04-19T00:45:59;10.18;;;4.80;;
71773;SDS011;59607;52.130;5.430;2023-04-19T00:48:32;5.40;;;4.90;;
71773;SDS011;59607;52.130;5.430;2023-04-19T00:51:01;6.65;;;4.82;;
71773;SDS011;59607;52.130;5.430;2023-04-19T00:53:49;5.45;;;4.95;;
71773;SDS011;59607;52.130;5.430;2023-04-19T00:56:21;5.88;;;5.05;;
71773;SDS011;59607;52.130;5.430;2023-04-19T00:58:50;5.95;;;4.80;;
71773;SDS011;59607;52.130;5.430;2023-04-19T01:01:24;6.80;;;5.10;;
71773;SDS011;59607;52.130;5.430;2023-04-19T01:04:00;6.60;;;4.75;;
71773;SDS011;59607;52.130;5.430;2023-04-19T01:06:27;5.68;;;5.10;;
71773;SDS011;59607;52.130;5.430;2023-04-19T01:09:02;5.40;;;4.90;;
71773;SDS011;59607;52.130;5.430;2023-04-19T01:11:29;7.22;;;5.07;;
71773;SDS011;59607;52.130;5.430;2023-04-19T01:13:56;7.30;;;5.23;;
71773;SDS011;59607;52.130;5.430;2023-04-19T01:16:28;5.78;;;5.18;;
71773;SDS011;59607;52.130;5.430;2023-04-19T01:18:54;6.47;;;5.68;;
71773;SDS011;59607;52.130;5.430;2023-04-19T01:21:37;6.68;;;5.10;;
71773;SDS011;59607;52.130;5.430;2023-04-19T01:24:05;7.70;;;5.15;;
71773;SDS011;59607;52.130;5.430;2023-04-19T01:26:32;6.43;;;5.83;;
71773;SDS011;59607;52.130;5.430;2023-04-19T01:28:58;9.20;;;6.22;;
71773;SDS011;59607;52.130;5.430;2023-04-19T01:31:25;8.50;;;5.65;;
71773;SDS011;59607;52.130;5.430;2023-04-19T01:34:08;6.90;;;5.40;;
71773;SDS011;59607;52.130;5.430;2023-04-19T01:36:37;6.50;;;5.85;;
71773;SDS011;59607;52.130;5.430;2023-04-19T01:39:04;6.23;;;5.67;;
71773;SDS011;59607;52.130;5.430;2023-04-19T01:41:30;10.93;;;5.88;;
71773;SDS011;59607;52.130;5.430;2023-04-19T01:44:02;9.75;;;5.50;;
71773;SDS011;59607;52.130;5.430;2023-04-19T01:46:28;6.57;;;5.53;;
71773;SDS011;59607;52.130;5.430;2023-04-19T01:48:58;7.70;;;5.18;;
71773;SDS011;59607;52.130;5.430;2023-04-19T01:51:29;7.80;;;5.80;;
71773;SDS011;59607;52.130;5.430;2023-04-19T01:53:55;6.22;;;5.53;;
71773;SDS011;59607;52.130;5.430;2023-04-19T01:56:23;6.68;;;5.80;;
71773;SDS011;59607;52.130;5.430;2023-04-19T01:58:51;6.75;;;5.80;;
71773;SDS011;59607;52.130;5.430;2023-04-19T02:01:17;6.85;;;6.25;;
71773;SDS011;59607;52.130;5.430;2023-04-19T02:03:44;8.13;;;6.20;;
71773;SDS011;59607;52.130;5.430;2023-04-19T02:06:14;8.05;;;5.68;;
71773;SDS011;59607;52.130;5.430;2023-04-19T02:08:41;7.65;;;6.68;;
71773;SDS011;59607;52.130;5.430;2023-04-19T02:11:14;7.15;;;5.25;;
71773;SDS011;59607;52.130;5.430;2023-04-19T02:13:42;7.00;;;5.55;;
71773;SDS011;59607;52.130;5.430;2023-04-19T02:16:15;9.63;;;5.73;;
71773;SDS011;59607;52.130;5.430;2023-04-19T02:18:41;6.70;;;6.00;;
71773;SDS011;59607;52.130;5.430;2023-04-19T02:21:08;6.78;;;6.07;;
71773;SDS011;59607;52.130;5.430;2023-04-19T02:23:39;7.22;;;5.82;;
71773;SDS011;59607;52.130;5.430;2023-04-19T02:26:08;10.90;;;6.20;;
71773;SDS011;59607;52.130;5.430;2023-04-19T02:28:36;18.33;;;5.93;;
71773;SDS011;59607;52.130;5.430;2023-04-19T02:31:10;7.70;;;5.80;;
71773;SDS011;59607;52.130;5.430;2023-04-19T02:33:36;6.97;;;6.10;;
71773;SDS011;59607;52.130;5.430;2023-04-19T02:36:08;7.00;;;6.00;;
71773;SDS011;59607;52.130;5.430;2023-04-19T02:38:37;7.20;;;5.55;;
71773;SDS011;59607;52.130;5.430;2023-04-19T02:41:06;6.03;;;5.40;;
71773;SDS011;59607;52.130;5.430;2023-04-19T02:43:42;6.10;;;5.50;;
71773;SDS011;59607;52.130;5.430;2023-04-19T02:46:18;7.65;;;6.00;;
71773;SDS011;59607;52.130;5.430;2023-04-19T02:48:44;8.23;;;5.78;;
71773;SDS011;59607;52.130;5.430;2023-04-19T02:51:14;7.00;;;6.05;;
71773;SDS011;59607;52.130;5.430;2023-04-19T02:53:42;7.03;;;5.00;;
71773;SDS011;59607;52.130;5.430;2023-04-19T02:56:09;5.97;;;5.35;;
71773;SDS011;59607;52.130;5.430;2023-04-19T02:58:35;7.30;;;5.63;;
71773;SDS011;59607;52.130;5.430;2023-04-19T03:01:08;6.15;;;5.55;;
71773;SDS011;59607;52.130;5.430;2023-04-19T03:03:34;5.88;;;5.28;;
71773;SDS011;59607;52.130;5.430;2023-04-19T03:06:03;6.80;;;5.57;;
71773;SDS011;59607;52.130;5.430;2023-04-19T03:08:30;9.82;;;5.70;;
71773;SDS011;59607;52.130;5.430;2023-04-19T03:10:57;6.30;;;5.70;;
71773;SDS011;59607;52.130;5.430;2023-04-19T03:13:23;6.22;;;5.63;;
71773;SDS011;59607;52.130;5.430;2023-04-19T03:15:55;6.15;;;5.57;;
71773;SDS011;59607;52.130;5.430;2023-04-19T03:18:22;7.07;;;5.20;;
71773;SDS011;59607;52.130;5.430;2023-04-19T03:20:53;8.57;;;5.10;;
71773;SDS011;59607;52.130;5.430;2023-04-19T03:23:27;7.50;;;5.32;;
71773;SDS011;59607;52.130;5.430;2023-04-19T03:25:57;6.57;;;5.28;;
71773;SDS011;59607;52.130;5.430;2023-04-19T03:28:27;6.97;;;5.07;;
71773;SDS011;59607;52.130;5.430;2023-04-19T03:30:56;6.07;;;5.10;;
71773;SDS011;59607;52.130;5.430;2023-04-19T03:33:28;7.18;;;5.35;;
71773;SDS011;59607;52.130;5.430;2023-04-19T03:36:00;6.50;;;5.35;;
71773;SDS011;59607;52.130;5.430;2023-04-19T03:38:30;7.18;;;5.30;;
71773;SDS011;59607;52.130;5.430;2023-04-19T03:40:56;4.88;;;4.40;;
71773;SDS011;59607;52.130;5.430;2023-04-19T03:43:31;6.20;;;4.83;;
71773;SDS011;59607;52.130;5.430;2023-04-19T03:45:57;5.45;;;4.50;;
71773;SDS011;59607;52.130;5.430;2023-04-19T03:48:24;5.32;;;4.25;;
71773;SDS011;59607;52.130;5.430;2023-04-19T03:50:56;5.13;;;4.68;;
71773;SDS011;59607;52.130;5.430;2023-04-19T03:53:22;6.95;;;4.80;;
71773;SDS011;59607;52.130;5.430;2023-04-19T03:55:49;5.27;;;4.87;;
71773;SDS011;59607;52.130;5.430;2023-04-19T03:58:18;5.68;;;4.95;;
71773;SDS011;59607;52.130;5.430;2023-04-19T04:00:45;5.03;;;4.53;;
71773;SDS011;59607;52.130;5.430;2023-04-19T04:03:11;5.22;;;4.70;;
71773;SDS011;59607;52.130;5.430;2023-04-19T04:05:48;5.18;;;4.63;;
71773;SDS011;59607;52.130;5.430;2023-04-19T04:08:17;6.70;;;4.77;;
71773;SDS011;59607;52.130;5.430;2023-04-19T04:10:48;5.50;;;4.82;;
71773;SDS011;59607;52.130;5.430;2023-04-19T04:13:16;5.22;;;4.72;;
71773;SDS011;59607;52.130;5.430;2023-04-19T04:16:01;5.43;;;4.53;;
71773;SDS011;59607;52.130;5.430;2023-04-19T04:18:31;5.50;;;4.40;;
71773;SDS011;59607;52.130;5.430;2023-04-19T04:20:58;8.40;;;5.33;;
71773;SDS011;59607;52.130;5.430;2023-04-19T04:23:24;6.40;;;4.05;;
71773;SDS011;59607;52.130;5.430;2023-04-19T04:25:57;5.22;;;4.55;;
71773;SDS011;59607;52.130;5.430;2023-04-19T04:28:27;6.80;;;4.70;;
71773;SDS011;59607;52.130;5.430;2023-04-19T04:30:59;7.85;;;4.60;;
71773;SDS011;59607;52.130;5.430;2023-04-19T04:33:31;5.90;;;4.63;;
71773;SDS011;59607;52.130;5.430;2023-04-19T04:36:00;5.70;;;4.95;;
71773;SDS011;59607;52.130;5.430;2023-04-19T04:38:27;7.13;;;4.85;;
71773;SDS011;59607;52.130;5.430;2023-04-19T04:40:58;5.78;;;4.47;;
71773;SDS011;59607;52.130;5.430;2023-04-19T04:43:25;8.48;;;4.60;;
71773;SDS011;59607;52.130;5.430;2023-04-19T04:45:54;7.63;;;4.23;;
71773;SDS011;59607;52.130;5.430;2023-04-19T04:48:28;4.47;;;4.07;;
71773;SDS011;59607;52.130;5.430;2023-04-19T04:50:56;7.32;;;4.63;;
71773;SDS011;59607;52.130;5.430;2023-04-19T04:53:39;6.65;;;4.60;;
71773;SDS011;59607;52.130;5.430;2023-04-19T04:56:08;6.65;;;4.72;;
71773;SDS011;59607;52.130;5.430;2023-04-19T04:58:38;4.53;;;4.13;;
71773;SDS011;59607;52.130;5.430;2023-04-19T05:01:07;5.18;;;4.40;;
71773;SDS011;59607;52.130;5.430;2023-04-19T05:03:40;5.55;;;4.22;;
71773;SDS011;59607;52.130;5.430;2023-04-19T05:06:07;5.55;;;4.35;;
71773;SDS011;59607;52.130;5.430;2023-04-19T05:08:34;5.38;;;4.10;;
71773;SDS011;59607;52.130;5.430;2023-04-19T05:11:04;5.13;;;4.50;;
71773;SDS011;59607;52.130;5.430;2023-04-19T05:13:31;5.35;;;4.30;;
71773;SDS011;59607;52.130;5.430;2023-04-19T05:16:13;7.97;;;4.28;;
71773;SDS011;59607;52.130;5.430;2023-04-19T05:18:41;6.30;;;3.80;;
71773;SDS011;59607;52.130;5.430;2023-04-19T05:21:10;5.85;;;4.28;;
71773;SDS011;59607;52.130;5.430;2023-04-19T05:23:36;3.83;;;3.33;;
71773;SDS011;59607;52.130;5.430;2023-04-19T05:26:10;6.80;;;3.53;;
71773;SDS011;59607;52.130;5.430;2023-04-19T05:28:42;4.60;;;4.20;;
71773;SDS011;59607;52.130;5.430;2023-04-19T05:31:12;6.00;;;4.13;;
71773;SDS011;59607;52.130;5.430;2023-04-19T05:33:39;6.05;;;3.95;;
71773;SDS011;59607;52.130;5.430;2023-04-19T05:36:07;6.07;;;3.33;;
71773;SDS011;59607;52.130;5.430;2023-04-19T05:38:36;7.57;;;4.05;;
71773;SDS011;59607;52.130;5.430;2023-04-19T05:41:03;4.53;;;3.75;;
71773;SDS011;59607;52.130;5.430;2023-04-19T05:43:30;4.53;;;3.47;;
71773;SDS011;59607;52.130;5.430;2023-04-19T05:46:05;5.88;;;3.70;;
71773;SDS011;59607;52.130;5.430;2023-04-19T05:48:32;3.73;;;3.40;;
71773;SDS011;59607;52.130;5.430;2023-04-19T05:51:12;3.50;;;3.20;;
71773;SDS011;59607;52.130;5.430;2023-04-19T05:53:39;4.18;;;3.78;;
71773;SDS011;59607;52.130;5.430;2023-04-19T05:56:06;5.95;;;3.05;;
71773;SDS011;59607;52.130;5.430;2023-04-19T05:58:32;3.55;;;3.15;;
71773;SDS011;59607;52.130;5.430;2023-04-19T06:01:05;24.73;;;6.30;;
71773;SDS011;59607;52.130;5.430;2023-04-19T06:03:34;7.80;;;3.35;;
71773;SDS011;59607;52.130;5.430;2023-04-19T06:06:07;3.65;;;3.35;;
71773;SDS011;59607;52.130;5.430;2023-04-19T06:08:34;4.50;;;3.00;;
71773;SDS011;59607;52.130;5.430;2023-04-19T06:11:00;7.22;;;3.08;;
71773;SDS011;59607;52.130;5.430;2023-04-19T06:13:46;3.43;;;2.83;;
71773;SDS011;59607;52.130;5.430;2023-04-19T06:16:23;3.67;;;2.78;;
71773;SDS011;59607;52.130;5.430;2023-04-19T06:18:49;9.23;;;3.22;;
71773;SDS011;59607;52.130;5.430;2023-04-19T06:21:21;3.97;;;2.53;;
71773;SDS011;59607;52.130;5.430;2023-04-19T06:23:47;4.25;;;2.83;;
71773;SDS011;59607;52.130;5.430;2023-04-19T06:26:14;2.80;;;2.47;;
71773;SDS011;59607;52.130;5.430;2023-04-19T06:28:45;3.35;;;2.65;;
71773;SDS011;59607;52.130;5.430;2023-04-19T06:31:11;3.20;;;2.90;;
71773;SDS011;59607;52.130;5.430;2023-04-19T06:33:41;3.05;;;2.60;;
71773;SDS011;59607;52.130;5.430;2023-04-19T06:36:10;4.43;;;2.90;;
71773;SDS011;59607;52.130;5.430;2023-04-19T06:38:37;4.43;;;2.20;;
71773;SDS011;59607;52.130;5.430;2023-04-19T06:41:14;4.03;;;2.20;;
71773;SDS011;59607;52.130;5.430;2023-04-19T06:43:42;6.35;;;3.22;;
71773;SDS011;59607;52.130;5.430;2023-04-19T06:46:15;5.68;;;2.20;;
71773;SDS011;59607;52.130;5.430;2023-04-19T06:48:41;4.65;;;2.40;;
71773;SDS011;59607;52.130;5.430;2023-04-19T06:51:07;2.33;;;1.83;;
71773;SDS011;59607;52.130;5.430;2023-04-19T06:53:39;2.70;;;2.20;;
71773;SDS011;59607;52.130;5.430;2023-04-19T06:56:05;5.88;;;2.30;;
71773;SDS011;59607;52.130;5.430;2023-04-19T06:58:38;3.67;;;1.95;;
71773;SDS011;59607;52.130;5.430;2023-04-19T07:01:07;2.20;;;1.85;;
71773;SDS011;59607;52.130;5.430;2023-04-19T07:03:33;3.37;;;2.20;;
71773;SDS011;59607;52.130;5.430;2023-04-19T07:06:03;2.55;;;2.00;;
71773;SDS011;59607;52.130;5.430;2023-04-19T07:08:32;2.50;;;1.88;;
71773;SDS011;59607;52.130;5.430;2023-04-19T07:11:14;3.08;;;1.85;;
71773;SDS011;59607;52.130;5.430;2023-04-19T07:13:43;4.70;;;1.90;;
71773;SDS011;59607;52.130;5.430;2023-04-19T07:16:12;2.30;;;1.90;;
71773;SDS011;59607;52.130;5.430;2023-04-19T07:18:39;1.60;;;1.20;;
71773;SDS011;59607;52.130;5.430;2023-04-19T07:21:15;2.00;;;1.80;;
71773;SDS011;59607;52.130;5.430;2023-04-19T07:23:41;44.20;;;2.53;;
71773;SDS011;59607;52.130;5.430;2023-04-19T07:26:11;3.33;;;1.52;;
71773;SDS011;59607;52.130;5.430;2023-04-19T07:28:41;4.17;;;1.60;;
71773;SDS011;59607;52.130;5.430;2023-04-19T07:31:13;4.00;;;1.60;;
71773;SDS011;59607;52.130;5.430;2023-04-19T07:33:42;2.40;;;1.50;;
71773;SDS011;59607;52.130;5.430;2023-04-19T07:36:09;4.53;;;1.58;;
71773;SDS011;59607;52.130;5.430;2023-04-19T07:38:35;2.63;;;1.20;;
71773;SDS011;59607;52.130;5.430;2023-04-19T07:41:19;3.30;;;1.30;;
71773;SDS011;59607;52.130;5.430;2023-04-19T07:43:52;3.17;;;1.30;;
71773;SDS011;59607;52.130;5.430;2023-04-19T07:46:19;2.55;;;1.50;;
71773;SDS011;59607;52.130;5.430;2023-04-19T07:48:51;1.67;;;1.30;;
71773;SDS011;59607;52.130;5.430;2023-04-19T07:51:17;3.78;;;1.40;;
71773;SDS011;59607;52.130;5.430;2023-04-19T07:54:04;1.87;;;1.10;;
71773;SDS011;59607;52.130;5.430;2023-04-19T07:56:35;2.85;;;1.17;;
71773;SDS011;59607;52.130;5.430;2023-04-19T07:59:02;3.92;;;1.45;;
71773;SDS011;59607;52.130;5.430;2023-04-19T08:01:34;2.95;;;1.20;;
71773;SDS011;59607;52.130;5.430;2023-04-19T08:04:05;2.50;;;1.80;;
71773;SDS011;59607;52.130;5.430;2023-04-19T08:06:32;4.27;;;1.97;;
71773;SDS011;59607;52.130;5.430;2023-04-19T08:09:03;4.15;;;1.33;;
71773;SDS011;59607;52.130;5.430;2023-04-19T08:11:29;2.45;;;1.33;;
71773;SDS011;59607;52.130;5.430;2023-04-19T08:13:56;5.15;;;1.27;;
71773;SDS011;59607;52.130;5.430;2023-04-19T08:16:49;2.55;;;1.20;;
71773;SDS011;59607;52.130;5.430;2023-04-19T08:19:21;2.67;;;1.17;;
71773;SDS011;59607;52.130;5.430;2023-04-19T08:21:50;2.28;;;1.00;;
71773;SDS011;59607;52.130;5.430;2023-04-19T08:24:16;3.47;;;1.33;;
71773;SDS011;59607;52.130;5.430;2023-04-19T08:26:43;1.77;;;1.10;;
71773;SDS011;59607;52.130;5.430;2023-04-19T08:29:19;1.40;;;0.82;;
71773;SDS011;59607;52.130;5.430;2023-04-19T08:31:49;1.40;;;0.90;;
71773;SDS011;59607;52.130;5.430;2023-04-19T08:34:17;2.15;;;0.98;;
71773;SDS011;59607;52.130;5.430;2023-04-19T08:36:43;1.52;;;0.93;;
71773;SDS011;59607;52.130;5.430;2023-04-19T08:39:28;1.77;;;0.90;;
71773;SDS011;59607;52.130;5.430;2023-04-19T08:42:03;1.63;;;0.93;;
71773;SDS011;59607;52.130;5.430;2023-04-19T08:44:53;3.43;;;1.07;;
71773;SDS011;59607;52.130;5.430;2023-04-19T08:47:45;3.05;;;0.70;;
71773;SDS011;59607;52.130;5.430;2023-04-19T08:50:26;1.70;;;0.70;;
71773;SDS011;59607;52.130;5.430;2023-04-19T08:53:03;2.53;;;0.70;;
71773;SDS011;59607;52.130;5.430;2023-04-19T08:55:54;2.30;;;0.70;;
71773;SDS011;59607;52.130;5.430;2023-04-19T08:58:27;1.10;;;0.50;;
71773;SDS011;59607;52.130;5.430;2023-04-19T09:01:05;1.42;;;0.60;;
71773;SDS011;59607;52.130;5.430;2023-04-19T09:04:00;1.27;;;0.57;;
71773;SDS011;59607;52.130;5.430;2023-04-19T09:06:57;2.83;;;0.60;;
71773;SDS011;59607;52.130;5.430;2023-04-19T09:09:25;1.92;;;0.63;;
71773;SDS011;59607;52.130;5.430;2023-04-19T09:12:15;3.83;;;0.40;;
71773;SDS011;59607;52.130;5.430;2023-04-19T09:14:46;1.85;;;0.40;;
71773;SDS011;59607;52.130;5.430;2023-04-19T09:17:27;2.42;;;0.40;;
71773;SDS011;59607;52.130;5.430;2023-04-19T09:20:00;1.65;;;0.60;;
71773;SDS011;59607;52.130;5.430;2023-04-19T09:22:32;0.50;;;0.30;;
71773;SDS011;59607;52.130;5.430;2023-04-19T09:25:23;2.40;;;0.40;;
71773;SDS011;59607;52.130;5.430;2023-04-19T09:28:12;2.45;;;0.60;;
71773;SDS011;59607;52.130;5.430;2023-04-19T09:30:39;1.98;;;0.80;;
71773;SDS011;59607;52.130;5.430;2023-04-19T09:33:32;0.98;;;0.38;;
71773;SDS011;59607;52.130;5.430;2023-04-19T09:36:00;1.15;;;0.60;;
71773;SDS011;59607;52.130;5.430;2023-04-19T09:38:50;1.37;;;0.40;;
71773;SDS011;59607;52.130;5.430;2023-04-19T09:41:19;1.05;;;0.50;;
71773;SDS011;59607;52.130;5.430;2023-04-19T09:43:46;1.90;;;0.70;;
71773;SDS011;59607;52.130;5.430;2023-04-19T09:46:38;1.60;;;0.60;;
71773;SDS011;59607;52.130;5.430;2023-04-19T09:49:22;3.38;;;0.45;;
71773;SDS011;59607;52.130;5.430;2023-04-19T09:52:06;1.00;;;0.60;;
71773;SDS011;59607;52.130;5.430;2023-04-19T09:54:40;0.82;;;0.60;;
71773;SDS011;59607;52.130;5.430;2023-04-19T09:57:10;1.90;;;0.50;;
71773;SDS011;59607;52.130;5.430;2023-04-19T09:59:38;1.17;;;0.55;;
71773;SDS011;59607;52.130;5.430;2023-04-19T10:02:08;2.00;;;0.50;;
71773;SDS011;59607;52.130;5.430;2023-04-19T10:04:37;2.67;;;0.60;;
71773;SDS011;59607;52.130;5.430;2023-04-19T10:07:31;1.20;;;0.50;;
71773;SDS011;59607;52.130;5.430;2023-04-19T10:09:58;8.52;;;0.73;;
71773;SDS011;59607;52.130;5.430;2023-04-19T10:12:41;3.00;;;0.77;;
71773;SDS011;59607;52.130;5.430;2023-04-19T10:15:36;1.45;;;0.55;;
71773;SDS011;59607;52.130;5.430;2023-04-19T10:18:17;3.33;;;0.53;;
71773;SDS011;59607;52.130;5.430;2023-04-19T10:20:52;1.20;;;0.52;;
71773;SDS011;59607;52.130;5.430;2023-04-19T10:23:26;0.80;;;0.70;;
71773;SDS011;59607;52.130;5.430;2023-04-19T10:26:01;1.08;;;0.50;;
71773;SDS011;59607;52.130;5.430;2023-04-19T10:28:28;1.17;;;0.50;;
71773;SDS011;59607;52.130;5.430;2023-04-19T10:30:59;2.20;;;0.40;;
71773;SDS011;59607;52.130;5.430;2023-04-19T10:33:30;1.10;;;0.57;;
71773;SDS011;59607;52.130;5.430;2023-04-19T10:36:20;1.52;;;0.60;;
71773;SDS011;59607;52.130;5.430;2023-04-19T10:38:52;1.38;;;0.55;;
71773;SDS011;59607;52.130;5.430;2023-04-19T10:41:23;1.80;;;0.60;;
71773;SDS011;59607;52.130;5.430;2023-04-19T10:44:23;0.70;;;0.50;;
71773;SDS011;59607;52.130;5.430;2023-04-19T10:47:00;1.70;;;0.40;;
71773;SDS011;59607;52.130;5.430;2023-04-19T10:49:27;0.80;;;0.50;;
71773;SDS011;59607;52.130;5.430;2023-04-19T10:52:00;0.95;;;0.55;;
71773;SDS011;59607;52.130;5.430;2023-04-19T10:54:33;2.45;;;0.88;;
71773;SDS011;59607;52.130;5.430;2023-04-19T10:57:05;2.63;;;0.60;;
71773;SDS011;59607;52.130;5.430;2023-04-19T10:59:41;3.15;;;0.60;;
71773;SDS011;59607;52.130;5.430;2023-04-19T11:02:27;1.38;;;0.55;;
71773;SDS011;59607;52.130;5.430;2023-04-19T11:04:58;1.85;;;0.40;;
71773;SDS011;59607;52.130;5.430;2023-04-19T11:07:35;3.17;;;0.73;;
71773;SDS011;59607;52.130;5.430;2023-04-19T11:10:07;2.23;;;0.87;;
71773;SDS011;59607;52.130;5.430;2023-04-19T11:12:34;1.27;;;0.57;;
71773;SDS011;59607;52.130;5.430;2023-04-19T11:15:04;1.48;;;0.60;;
71773;SDS011;59607;52.130;5.430;2023-04-19T11:17:31;1.67;;;0.73;;
71773;SDS011;59607;52.130;5.430;2023-04-19T11:20:04;1.35;;;0.93;;
71773;SDS011;59607;52.130;5.430;2023-04-19T11:22:55;3.70;;;0.67;;
71773;SDS011;59607;52.130;5.430;2023-04-19T11:25:26;1.10;;;0.55;;
71773;SDS011;59607;52.130;5.430;2023-04-19T11:27:56;1.75;;;0.70;;
71773;SDS011;59607;52.130;5.430;2023-04-19T11:30:28;3.10;;;0.73;;
71773;SDS011;59607;52.130;5.430;2023-04-19T11:33:01;2.15;;;1.15;;
71773;SDS011;59607;52.130;5.430;2023-04-19T11:35:27;1.40;;;0.87;;
71773;SDS011;59607;52.130;5.430;2023-04-19T11:38:03;0.80;;;0.50;;
71773;SDS011;59607;52.130;5.430;2023-04-19T11:40:30;1.67;;;0.60;;
71773;SDS011;59607;52.130;5.430;2023-04-19T11:42:58;3.40;;;0.90;;
71773;SDS011;59607;52.130;5.430;2023-04-19T11:45:29;1.80;;;1.00;;
71773;SDS011;59607;52.130;5.430;2023-04-19T11:48:04;2.60;;;0.80;;
71773;SDS011;59607;52.130;5.430;2023-04-19T11:50:34;1.98;;;0.70;;
71773;SDS011;59607;52.130;5.430;2023-04-19T11:56:08;1.23;;;0.80;;
71773;SDS011;59607;52.130;5.430;2023-04-19T11:58:38;1.35;;;0.70;;
71773;SDS011;59607;52.130;5.430;2023-04-19T12:01:19;1.10;;;0.90;;
71773;SDS011;59607;52.130;5.430;2023-04-19T12:03:53;1.60;;;0.70;;
71773;SDS011;59607;52.130;5.430;2023-04-19T12:06:26;4.30;;;0.80;;
71773;SDS011;59607;52.130;5.430;2023-04-19T12:08:57;4.85;;;1.13;;
71773;SDS011;59607;52.130;5.430;2023-04-19T12:11:43;2.85;;;0.80;;
71773;SDS011;59607;52.130;5.430;2023-04-19T12:14:11;4.40;;;0.90;;
71773;SDS011;59607;52.130;5.430;2023-04-19T12:17:02;1.50;;;0.80;;
71773;SDS011;59607;52.130;5.430;2023-04-19T12:19:41;2.17;;;0.90;;
71773;SDS011;59607;52.130;5.430;2023-04-19T12:22:15;1.80;;;1.05;;
71773;SDS011;59607;52.130;5.430;2023-04-19T12:24:51;2.40;;;1.10;;
71773;SDS011;59607;52.130;5.430;2023-04-19T12:27:21;1.40;;;1.00;;
71773;SDS011;59607;52.130;5.430;2023-04-19T12:29:52;2.55;;;1.10;;
71773;SDS011;59607;52.130;5.430;2023-04-19T12:32:19;1.45;;;1.10;;
71773;SDS011;59607;52.130;5.430;2023-04-19T12:34:46;3.55;;;0.90;;
71773;SDS011;59607;52.130;5.430;2023-04-19T12:37:21;1.55;;;1.00;;
71773;SDS011;59607;52.130;5.430;2023-04-19T12:39:47;1.30;;;1.20;;
71773;SDS011;59607;52.130;5.430;2023-04-19T12:42:14;1.58;;;1.05;;
71773;SDS011;59607;52.130;5.430;2023-04-19T12:44:41;2.25;;;1.42;;
71773;SDS011;59607;52.130;5.430;2023-04-19T12:47:07;1.70;;;1.25;;
71773;SDS011;59607;52.130;5.430;2023-04-19T12:49:34;2.90;;;1.10;;
71773;SDS011;59607;52.130;5.430;2023-04-19T12:52:14;2.00;;;1.00;;
71773;SDS011;59607;52.130;5.430;2023-04-19T12:54:50;1.55;;;1.30;;
71773;SDS011;59607;52.130;5.430;2023-04-19T12:57:20;1.35;;;1.20;;
71773;SDS011;59607;52.130;5.430;2023-04-19T12:59:49;3.38;;;1.40;;
71773;SDS011;59607;52.130;5.430;2023-04-19T13:02:15;1.80;;;1.08;;
71773;SDS011;59607;52.130;5.430;2023-04-19T13:04:42;3.30;;;1.40;;
71773;SDS011;59607;52.130;5.430;2023-04-19T13:07:09;3.33;;;1.45;;
71773;SDS011;59607;52.130;5.430;2023-04-19T13:09:35;3.80;;;1.00;;
71773;SDS011;59607;52.130;5.430;2023-04-19T13:12:02;2.65;;;1.10;;
71773;SDS011;59607;52.130;5.430;2023-04-19T13:14:33;4.43;;;1.05;;
71773;SDS011;59607;52.130;5.430;2023-04-19T13:16:59;3.87;;;2.27;;
71773;SDS011;59607;52.130;5.430;2023-04-19T13:19:26;2.05;;;1.05;;
71773;SDS011;59607;52.130;5.430;2023-04-19T13:21:52;3.15;;;0.90;;
71773;SDS011;59607;52.130;5.430;2023-04-19T13:24:25;1.10;;;0.70;;
71773;SDS011;59607;52.130;5.430;2023-04-19T13:26:51;1.25;;;0.93;;
71773;SDS011;59607;52.130;5.430;2023-04-19T13:29:21;1.20;;;0.90;;
71773;SDS011;59607;52.130;5.430;2023-04-19T13:31:47;1.10;;;0.90;;
71773;SDS011;59607;52.130;5.430;2023-04-19T13:34:14;2.65;;;1.63;;
71773;SDS011;59607;52.130;5.430;2023-04-19T13:36:41;3.20;;;1.35;;
71773;SDS011;59607;52.130;5.430;2023-04-19T13:39:13;1.20;;;0.90;;
71773;SDS011;59607;52.130;5.430;2023-04-19T13:41:40;2.93;;;0.97;;
71773;SDS011;59607;52.130;5.430;2023-04-19T13:44:06;1.88;;;1.10;;
71773;SDS011;59607;52.130;5.430;2023-04-19T13:46:36;2.95;;;0.98;;
71773;SDS011;59607;52.130;5.430;2023-04-19T13:49:02;1.25;;;0.90;;
71773;SDS011;59607;52.130;5.430;2023-04-19T13:51:29;2.58;;;0.68;;
71773;SDS011;59607;52.130;5.430;2023-04-19T13:54:16;1.63;;;0.80;;
71773;SDS011;59607;52.130;5.430;2023-04-19T13:56:46;1.10;;;0.90;;
71773;SDS011;59607;52.130;5.430;2023-04-19T13:59:17;2.15;;;0.90;;
71773;SDS011;59607;52.130;5.430;2023-04-19T14:01:49;2.20;;;0.88;;
71773;SDS011;59607;52.130;5.430;2023-04-19T14:04:15;2.92;;;0.88;;
71773;SDS011;59607;52.130;5.430;2023-04-19T14:06:43;1.30;;;0.60;;
71773;SDS011;59607;52.130;5.430;2023-04-19T14:09:17;6.70;;;1.50;;
71773;SDS011;59607;52.130;5.430;2023-04-19T14:11:45;2.58;;;1.00;;
71773;SDS011;59607;52.130;5.430;2023-04-19T14:14:17;1.00;;;0.80;;
71773;SDS011;59607;52.130;5.430;2023-04-19T14:16:47;1.63;;;0.90;;
71773;SDS011;59607;52.130;5.430;2023-04-19T14:19:15;1.20;;;0.80;;
71773;SDS011;59607;52.130;5.430;2023-04-19T14:21:41;2.45;;;0.80;;
71773;SDS011;59607;52.130;5.430;2023-04-19T14:24:07;4.30;;;0.80;;
71773;SDS011;59607;52.130;5.430;2023-04-19T14:26:35;1.48;;;0.77;;
71773;SDS011;59607;52.130;5.430;2023-04-19T14:29:09;1.30;;;0.70;;
71773;SDS011;59607;52.130;5.430;2023-04-19T14:31:42;1.60;;;0.83;;
71773;SDS011;59607;52.130;5.430;2023-04-19T14:34:09;2.90;;;0.57;;
71773;SDS011;59607;52.130;5.430;2023-04-19T14:36:41;2.67;;;0.70;;
71773;SDS011;59607;52.130;5.430;2023-04-19T14:39:13;1.35;;;0.80;;
71773;SDS011;59607;52.130;5.430;2023-04-19T14:41:40;1.85;;;0.90;;
71773;SDS011;59607;52.130;5.430;2023-04-19T14:44:09;3.00;;;0.87;;
71773;SDS011;59607;52.130;5.430;2023-04-19T14:46:36;1.42;;;0.93;;
71773;SDS011;59607;52.130;5.430;2023-04-19T14:49:02;2.33;;;1.10;;
71773;SDS011;59607;52.130;5.430;2023-04-19T14:51:40;2.97;;;1.05;;
71773;SDS011;59607;52.130;5.430;2023-04-19T14:54:09;1.83;;;1.02;;
71773;SDS011;59607;52.130;5.430;2023-04-19T14:56:41;2.47;;;0.70;;
71773;SDS011;59607;52.130;5.430;2023-04-19T14:59:14;1.52;;;1.15;;
71773;SDS011;59607;52.130;5.430;2023-04-19T15:01:45;1.73;;;0.70;;
71773;SDS011;59607;52.130;5.430;2023-04-19T15:04:15;5.95;;;1.10;;
71773;SDS011;59607;52.130;5.430;2023-04-19T15:06:42;2.10;;;1.08;;
71773;SDS011;59607;52.130;5.430;2023-04-19T15:09:08;1.40;;;0.80;;
71773;SDS011;59607;52.130;5.430;2023-04-19T15:11:35;1.40;;;1.00;;
71773;SDS011;59607;52.130;5.430;2023-04-19T15:14:07;2.78;;;1.10;;
71773;SDS011;59607;52.130;5.430;2023-04-19T15:16:34;3.83;;;1.15;;